createdAt,value
2023-01-13T00:23:13.726Z,0.60
2023-01-13T00:25:42.446Z,0.57
2023-01-13T00:28:10.513Z,0.50
2023-01-13T00:30:38.678Z,0.90
2023-01-13T00:33:06.864Z,0.60
2023-01-13T00:35:34.928Z,0.60
2023-01-13T00:38:02.873Z,0.50
2023-01-13T00:40:32.283Z,0.60
2023-01-13T00:43:17.748Z,0.60
2023-01-13T00:45:45.811Z,0.50
2023-01-13T00:48:13.780Z,0.90
2023-01-13T00:50:42.298Z,1.10
2023-01-13T00:53:10.247Z,0.87
2023-01-13T00:55:39.738Z,0.57
2023-01-13T00:58:07.769Z,0.60
2023-01-13T01:00:36.068Z,0.90
2023-01-13T01:03:07.311Z,0.70
2023-01-13T01:05:35.278Z,0.60
2023-01-13T01:08:03.640Z,0.80
2023-01-13T01:10:31.776Z,0.80
2023-01-13T01:13:01.201Z,0.70
2023-01-13T01:15:29.243Z,0.70
2023-01-13T01:17:57.231Z,0.60
2023-01-13T01:20:25.176Z,0.73
2023-01-13T01:22:55.443Z,0.70
2023-01-13T01:25:23.548Z,0.60
2023-01-13T01:27:51.702Z,0.80
2023-01-13T01:30:22.312Z,0.73
2023-01-13T01:32:50.393Z,0.60
2023-01-13T01:35:18.869Z,0.60
2023-01-13T01:37:47.358Z,1.00
2023-01-13T01:40:15.641Z,0.70
2023-01-13T01:43:01.017Z,0.80
2023-01-13T01:45:32.160Z,1.00
2023-01-13T01:48:03.701Z,0.87
2023-01-13T01:50:33.668Z,0.70
2023-01-13T01:53:11.366Z,0.80
2023-01-13T01:55:40.271Z,0.60
2023-01-13T01:58:12.631Z,0.80
2023-01-13T02:00:42.053Z,0.70
2023-01-13T02:03:10.689Z,0.70
2023-01-13T02:05:39.682Z,1.00
2023-01-13T02:08:09.964Z,0.90
2023-01-13T02:10:38.998Z,0.77
2023-01-13T02:13:09.836Z,0.60
2023-01-13T02:15:49.097Z,0.70
2023-01-13T02:18:34.826Z,0.60
2023-01-13T02:21:33.132Z,0.70
2023-01-13T02:24:53.114Z,0.80
2023-01-13T02:27:59.551Z,0.70
2023-01-13T02:31:01.167Z,0.57
2023-01-13T02:33:46.930Z,0.70
2023-01-13T02:36:22.178Z,0.50
2023-01-13T02:38:55.216Z,0.60
2023-01-13T02:41:46.462Z,0.60
2023-01-13T02:44:21.804Z,0.70
2023-01-13T02:46:56.789Z,0.50
2023-01-13T02:49:34.921Z,0.60
2023-01-13T02:52:10.284Z,0.60
2023-01-13T02:54:40.458Z,0.50
2023-01-13T02:57:11.801Z,0.83
2023-01-13T02:59:42.096Z,0.60
2023-01-13T03:02:15.061Z,0.50
2023-01-13T03:04:55.616Z,0.57
2023-01-13T03:07:58.463Z,0.50
2023-01-13T03:10:37.323Z,0.67
2023-01-13T03:24:36.126Z,0.60
2023-01-13T03:27:08.765Z,0.50
2023-01-13T03:29:39.464Z,0.70
2023-01-13T03:32:29.163Z,0.70
2023-01-13T03:35:01.140Z,0.40
2023-01-13T03:37:34.241Z,0.80
2023-01-13T03:40:14.861Z,0.50
2023-01-13T03:43:08.039Z,0.60
2023-01-13T03:45:37.583Z,0.60
2023-01-13T03:48:09.856Z,0.47
2023-01-13T03:50:42.440Z,0.50
2023-01-13T03:53:15.128Z,0.47
2023-01-13T03:55:49.606Z,0.60
2023-01-13T03:58:22.549Z,0.57
2023-01-13T04:00:57.286Z,0.60
2023-01-13T04:03:30.347Z,0.60
2023-01-13T04:06:06.869Z,0.50
2023-01-13T04:08:37.585Z,0.50
2023-01-13T04:11:58.245Z,0.50
2023-01-13T04:14:31.552Z,0.50
2023-01-13T04:16:59.732Z,0.43
2023-01-13T04:19:27.792Z,0.57
2023-01-13T04:21:55.794Z,0.60
2023-01-13T04:24:24.131Z,0.40
2023-01-13T04:26:52.208Z,0.40
2023-01-13T04:29:44.686Z,0.43
2023-01-13T04:32:23.279Z,0.50
2023-01-13T04:35:25.620Z,0.40
2023-01-13T04:37:53.644Z,0.40
2023-01-13T04:40:21.547Z,0.50
2023-01-13T04:42:49.661Z,0.43
2023-01-13T04:45:18.966Z,0.60
2023-01-13T04:47:48.517Z,0.50
2023-01-13T04:50:19.428Z,0.50
2023-01-13T04:52:47.637Z,0.50
2023-01-13T04:55:16.037Z,0.60
2023-01-13T04:57:44.017Z,0.70
2023-01-13T05:00:14.167Z,0.40
2023-01-13T05:02:43.746Z,0.43
2023-01-13T05:05:12.074Z,0.83
2023-01-13T05:07:40.002Z,0.40
2023-01-13T05:10:08.439Z,0.80
2023-01-13T05:12:53.688Z,0.50
2023-01-13T05:15:39.291Z,0.47
2023-01-13T05:18:08.724Z,0.50
2023-01-13T05:20:36.698Z,0.43
2023-01-13T05:23:22.375Z,0.40
2023-01-13T05:25:50.571Z,0.60
2023-01-13T05:28:18.574Z,0.57
2023-01-13T05:30:49.341Z,0.40
2023-01-13T05:33:35.843Z,0.47
2023-01-13T05:36:05.790Z,0.67
2023-01-13T05:38:33.646Z,0.63
2023-01-13T05:41:19.348Z,0.50
2023-01-13T05:43:47.296Z,0.70
2023-01-13T05:46:17.663Z,0.40
2023-01-13T05:48:48.147Z,0.50
2023-01-13T05:51:23.144Z,0.53
2023-01-13T05:54:06.545Z,0.40
2023-01-13T05:56:42.432Z,0.37
2023-01-13T14:45:39.391Z,1.53
2023-01-13T14:48:10.002Z,1.67
2023-01-13T14:50:39.007Z,3.00
2023-01-13T14:53:36.722Z,2.47
2023-01-13T14:56:42.180Z,2.33
2023-01-13T14:59:36.428Z,1.93
2023-01-13T15:02:46.414Z,1.57
2023-01-13T15:05:50.452Z,2.13
2023-01-13T15:08:33.973Z,1.30
2023-01-13T15:11:04.315Z,1.30
